Roselle, Illinois
Current Conditions -  °F | °C
As of 11:51 PM on Sunday 25 Jan 2015 (Local Time) from KORD Reporting Station
Broken Clouds Broken Clouds  
Wind Chill: 12°   Ceiling: 2400
Heat Index: 24°   Visibility: 10mi
Dew Point: 15°   Wind: 13mph
Humidity: 69%   Direction: 50°NE
Pressure: 29.97"   Gusts: NA
Location:  41.98°N, 88.08°W
Report Text: KORD 260551Z 05011KT 10SM BKN024 M04/M09 A2997 RMK AO2 SLP156 T10441094 11033 21044 400111044 58004
Loading
Personal Weather Stations






























Interactive Weather Map New forecast layout! Learn more

10-Day Weather Forecast

Advertisements
Track Severe Weather on mobile